createdAt,value
2022-09-12T00:01:19.643Z,8.30
2022-09-12T00:03:46.714Z,8.46
2022-09-12T00:06:22.593Z,8.47
2022-09-12T00:08:49.928Z,8.35
2022-09-12T00:11:16.562Z,8.46
2022-09-12T00:13:43.345Z,8.41
2022-09-12T00:16:19.637Z,8.49
2022-09-12T00:18:47.288Z,8.46
2022-09-12T00:21:15.246Z,8.43
2022-09-12T00:23:43.311Z,8.41
2022-09-12T00:26:10.243Z,8.39
2022-09-12T00:28:39.292Z,8.33
2022-09-12T00:31:15.319Z,8.22
2022-09-12T00:33:42.368Z,8.34
2022-09-12T00:36:12.946Z,8.34
2022-09-12T00:38:43.330Z,8.41
2022-09-12T00:41:21.982Z,8.43
2022-09-12T00:44:23.798Z,8.44
2022-09-12T00:47:04.194Z,8.35
2022-09-12T00:49:43.016Z,8.42
2022-09-12T00:52:13.777Z,8.44
2022-09-12T00:54:49.131Z,8.44
2022-09-12T00:57:17.913Z,8.46
2022-09-12T00:59:58.110Z,8.45
2022-09-12T01:02:25.735Z,8.43
2022-09-12T01:04:53.099Z,8.47
2022-09-12T01:07:21.404Z,8.43
2022-09-12T01:09:48.167Z,8.47
2022-09-12T01:12:16.071Z,8.44
2022-09-12T01:14:42.915Z,8.49
2022-09-12T01:17:13.789Z,8.45
2022-09-12T01:20:15.541Z,8.43
2022-09-12T01:22:42.046Z,8.47
2022-09-12T01:25:31.652Z,8.43
2022-09-12T01:28:29.682Z,8.48
2022-09-12T01:31:22.655Z,8.46
2022-09-12T01:34:07.487Z,8.48
2022-09-12T01:37:07.427Z,8.37
2022-09-12T01:39:40.179Z,8.48
2022-09-12T01:42:35.167Z,8.45
2022-09-12T01:45:22.357Z,8.42
2022-09-12T01:48:01.278Z,8.41
2022-09-12T01:50:33.980Z,8.41
2022-09-12T01:53:31.030Z,8.42
2022-09-12T01:56:19.107Z,8.42
2022-09-12T01:58:51.719Z,8.31
2022-09-12T02:01:24.758Z,8.38
2022-09-12T02:04:09.723Z,8.42
2022-09-12T02:06:42.960Z,8.42
2022-09-12T02:09:18.703Z,8.42
2022-09-12T02:11:46.605Z,8.41
2022-09-12T02:14:20.769Z,8.42
2022-09-12T02:16:54.567Z,8.39
2022-09-12T02:19:24.739Z,8.28
2022-09-12T02:21:56.244Z,8.35
2022-09-12T02:24:34.084Z,8.40
2022-09-12T02:27:25.015Z,8.34
2022-09-12T02:29:52.364Z,8.32
2022-09-12T02:32:30.184Z,8.40
2022-09-12T02:35:08.152Z,8.42
2022-09-12T02:38:18.941Z,8.45
2022-09-12T02:40:47.539Z,8.46
2022-09-12T02:43:14.170Z,8.43
2022-09-12T02:45:41.229Z,8.40
2022-09-12T02:48:15.784Z,8.32
2022-09-12T02:50:43.409Z,8.41
2022-09-12T02:53:11.820Z,8.50
2022-09-12T02:55:42.114Z,8.47
2022-09-12T02:58:16.951Z,8.53
2022-09-12T03:01:09.785Z,8.47
2022-09-12T03:03:59.968Z,8.48
2022-09-12T03:06:26.538Z,8.67
2022-09-12T03:09:11.421Z,8.69
2022-09-12T03:11:52.592Z,8.64
2022-09-12T03:14:40.055Z,8.77
2022-09-12T03:17:51.242Z,8.84
2022-09-12T03:20:51.588Z,8.89
2022-09-12T03:23:25.857Z,8.95
2022-09-12T03:26:19.145Z,8.99
2022-09-12T03:28:50.744Z,9.04
2022-09-12T03:31:19.609Z,9.10
2022-09-12T03:33:46.639Z,9.09
2022-09-12T03:36:19.015Z,9.14
2022-09-12T03:38:45.705Z,9.20
2022-09-12T03:41:12.337Z,9.17
2022-09-12T03:43:39.014Z,9.19
2022-09-12T03:46:05.832Z,9.30
2022-09-12T03:48:32.477Z,9.34
2022-09-12T14:41:37.306Z,18.70
2022-09-12T14:44:08.433Z,18.53
2022-09-12T14:46:37.075Z,18.59
2022-09-12T14:49:15.773Z,18.59
2022-09-12T14:51:51.582Z,18.54
2022-09-12T14:54:40.290Z,18.25
2022-09-12T14:57:39.104Z,17.72
2022-09-12T15:00:11.922Z,17.13
2022-09-12T15:02:42.604Z,16.46
2022-09-12T15:05:09.167Z,15.95
2022-09-12T15:07:51.411Z,15.40
2022-09-12T15:10:23.121Z,14.72
2022-09-12T15:12:50.019Z,14.59
2022-09-12T15:15:20.817Z,14.30
2022-09-12T15:17:47.675Z,14.02
2022-09-12T15:20:14.862Z,13.68
2022-09-12T15:22:43.861Z,13.46
2022-09-12T15:25:12.445Z,13.19
2022-09-12T15:27:42.423Z,13.01
2022-09-12T15:30:11.112Z,12.77
2022-09-12T15:32:37.712Z,12.56
2022-09-12T15:35:10.276Z,12.30
2022-09-12T15:37:37.095Z,12.20
2022-09-12T15:40:05.394Z,12.02
2022-09-12T15:42:32.198Z,11.87
2022-09-12T15:45:02.562Z,11.72
2022-09-12T15:47:29.547Z,11.54
2022-09-12T15:49:56.115Z,11.49
2022-09-12T15:52:22.720Z,11.36
2022-09-12T15:54:49.272Z,11.27
2022-09-12T15:57:15.856Z,10.97
2022-09-12T15:59:44.144Z,10.97
2022-09-12T16:02:11.849Z,10.91
2022-09-12T16:04:38.455Z,10.74
2022-09-12T16:07:05.939Z,10.75
2022-09-12T16:09:32.628Z,10.66
2022-09-12T16:11:59.336Z,10.58
2022-09-12T16:14:26.752Z,10.49
2022-09-12T16:16:54.685Z,10.37
2022-09-12T16:19:21.608Z,10.31
2022-09-12T16:21:50.348Z,10.23
2022-09-12T16:24:17.179Z,10.19
2022-09-12T16:26:43.812Z,10.11
2022-09-12T16:29:12.959Z,10.06
2022-09-12T16:31:40.117Z,10.00
2022-09-12T16:34:07.186Z,9.93
2022-09-12T16:36:33.964Z,9.89
2022-09-12T16:39:00.570Z,9.80
2022-09-12T16:41:29.120Z,9.75
2022-09-12T16:43:56.223Z,9.71
2022-09-12T16:46:25.455Z,9.63
2022-09-12T16:48:54.034Z,9.50
2022-09-12T16:51:22.945Z,9.45
2022-09-12T16:53:50.151Z,9.44
2022-09-12T16:56:16.841Z,9.39
2022-09-12T16:58:43.717Z,9.33
2022-09-12T17:01:14.808Z,9.27
2022-09-12T17:03:42.290Z,9.18
2022-09-12T17:06:16.030Z,9.15
2022-09-12T17:08:45.452Z,8.99
2022-09-12T17:11:15.067Z,9.03
2022-09-12T17:14:03.356Z,8.88
2022-09-12T17:16:29.299Z,8.91
2022-09-12T17:18:55.911Z,8.88
2022-09-12T17:21:22.962Z,8.83
2022-09-12T17:23:49.900Z,8.68
2022-09-12T17:26:17.286Z,8.76
2022-09-12T17:28:44.201Z,8.70
2022-09-12T17:31:13.158Z,8.58
2022-09-12T17:33:40.043Z,8.53
2022-09-12T17:36:09.991Z,8.30
2022-09-12T17:38:38.615Z,8.41
2022-09-12T17:41:07.727Z,8.34
2022-09-12T17:43:35.978Z,8.35
2022-09-12T17:46:03.034Z,8.24
2022-09-12T17:48:30.416Z,8.16
2022-09-12T17:50:57.427Z,8.05
2022-09-12T17:53:23.979Z,8.14
2022-09-12T17:55:54.235Z,8.07
2022-09-12T17:58:21.047Z,8.03
2022-09-12T18:01:06.245Z,8.03
2022-09-12T18:03:35.160Z,7.83
2022-09-12T18:06:01.754Z,7.92
2022-09-12T18:08:28.357Z,7.89
2022-09-12T18:11:04.133Z,7.77
2022-09-12T18:13:33.415Z,7.73
2022-09-12T18:16:08.226Z,7.77
2022-09-12T18:18:37.395Z,7.69
2022-09-12T18:21:06.037Z,7.70
2022-09-12T18:23:33.422Z,7.61
2022-09-12T18:26:02.794Z,7.60
2022-09-12T18:28:31.754Z,7.56
2022-09-12T18:30:58.589Z,7.54
2022-09-12T18:33:25.310Z,7.47
2022-09-12T18:35:51.959Z,7.51
2022-09-12T18:38:18.546Z,7.46
2022-09-12T18:40:45.436Z,7.42
2022-09-12T18:43:12.060Z,7.38
2022-09-12T18:45:38.621Z,7.38
2022-09-12T18:48:12.535Z,7.35
2022-09-12T18:50:39.092Z,7.26
2022-09-12T18:53:05.743Z,7.23
2022-09-12T18:55:33.256Z,7.13
2022-09-12T18:57:59.845Z,7.10
2022-09-12T19:00:27.028Z,7.10
2022-09-12T19:02:53.685Z,7.03
2022-09-12T19:05:20.281Z,6.89
2022-09-12T19:07:46.862Z,6.95
2022-09-12T19:10:13.489Z,6.94
2022-09-12T19:12:40.103Z,6.89
2022-09-12T19:15:07.209Z,6.86
2022-09-12T19:17:33.835Z,6.86
2022-09-12T19:20:00.426Z,6.81
2022-09-12T19:22:27.568Z,6.86
2022-09-12T19:24:55.244Z,6.83
2022-09-12T19:27:22.022Z,6.82
2022-09-12T19:29:48.664Z,6.83
2022-09-12T19:32:15.515Z,6.76
2022-09-12T19:34:42.129Z,6.74
2022-09-12T19:37:08.859Z,6.69
2022-09-12T19:39:36.240Z,6.71
2022-09-12T19:42:03.008Z,6.69
2022-09-12T19:44:30.498Z,6.66
2022-09-12T19:46:57.539Z,6.63
2022-09-12T19:49:24.786Z,6.61
2022-09-12T19:51:51.427Z,6.57
2022-09-12T19:54:18.046Z,6.39
2022-09-12T19:56:44.684Z,6.50
2022-09-12T19:59:11.776Z,6.52
2022-09-12T20:01:38.553Z,6.51
2022-09-12T20:04:06.647Z,6.49
2022-09-12T20:06:33.479Z,6.47
2022-09-12T20:09:00.939Z,6.44
2022-09-12T20:11:27.489Z,6.37
2022-09-12T20:13:54.116Z,6.41
2022-09-12T20:16:26.694Z,6.40
2022-09-12T20:18:59.736Z,6.37
2022-09-12T20:21:32.257Z,6.30
2022-09-12T20:24:08.083Z,6.30
2022-09-12T20:26:34.725Z,6.30
2022-09-12T20:29:01.996Z,6.15
2022-09-12T20:31:28.856Z,6.27
2022-09-12T20:33:56.603Z,6.22
2022-09-12T20:36:23.747Z,6.24
2022-09-12T20:38:56.825Z,6.15
2022-09-12T20:41:25.620Z,6.20
2022-09-12T20:43:54.162Z,6.21
2022-09-12T20:46:22.494Z,6.21
2022-09-12T20:48:50.419Z,6.15
2022-09-12T20:51:17.026Z,6.17
2022-09-12T20:53:43.634Z,6.25
2022-09-12T20:56:10.334Z,6.18
2022-09-12T20:58:41.635Z,6.25
2022-09-12T21:01:11.731Z,6.06
2022-09-12T21:03:39.450Z,6.25
2022-09-12T21:06:07.101Z,6.13
2022-09-12T21:08:35.440Z,6.28
2022-09-12T21:11:02.174Z,6.26
2022-09-12T21:13:28.830Z,6.23
2022-09-12T21:16:04.692Z,6.19
2022-09-12T21:18:32.640Z,6.12
2022-09-12T21:20:59.480Z,6.17
2022-09-12T21:23:27.709Z,6.13
2022-09-12T21:25:54.520Z,6.11
2022-09-12T21:28:21.803Z,6.04
2022-09-12T21:30:49.813Z,6.05
2022-09-12T21:33:19.063Z,6.03
2022-09-12T21:35:47.357Z,5.90
2022-09-12T21:38:18.334Z,5.95
2022-09-12T21:40:45.981Z,5.82
2022-09-12T21:43:14.423Z,5.86
2022-09-12T21:45:41.051Z,5.85
2022-09-12T21:48:08.006Z,5.81
2022-09-12T21:50:34.626Z,5.79
2022-09-12T21:53:01.737Z,5.77
2022-09-12T21:55:28.334Z,5.76
2022-09-12T21:57:55.542Z,5.65
2022-09-12T22:00:22.892Z,5.73
2022-09-12T22:02:49.563Z,5.63
2022-09-12T22:05:16.801Z,5.68
2022-09-12T22:07:43.449Z,5.61
2022-09-12T22:10:10.477Z,5.64
2022-09-12T22:12:37.070Z,5.60
2022-09-12T22:15:22.939Z,5.56
2022-09-12T22:17:51.560Z,5.44
2022-09-12T22:20:19.088Z,5.52
2022-09-12T22:23:04.143Z,5.52
2022-09-12T22:25:31.025Z,5.48
2022-09-12T22:27:58.308Z,5.45
2022-09-12T22:30:27.292Z,5.40
2022-09-12T22:32:54.066Z,5.37
2022-09-12T22:35:21.010Z,5.19
2022-09-12T22:37:47.918Z,5.29
2022-09-12T22:40:16.451Z,5.25
2022-09-12T22:42:43.854Z,5.21
2022-09-12T22:45:10.724Z,5.20
2022-09-12T22:47:37.468Z,5.20
2022-09-12T22:50:04.483Z,5.19
2022-09-12T22:52:31.055Z,5.16
2022-09-12T22:54:57.672Z,5.12
2022-09-12T22:57:24.267Z,5.12
2022-09-12T22:59:50.898Z,5.08
2022-09-12T23:02:18.275Z,5.04
2022-09-12T23:04:46.720Z,5.04
2022-09-12T23:07:13.297Z,4.99
2022-09-12T23:09:40.747Z,4.92
2022-09-12T23:12:07.459Z,4.94
2022-09-12T23:14:34.237Z,4.91
2022-09-12T23:17:00.833Z,4.91
2022-09-12T23:19:27.393Z,4.88
2022-09-12T23:21:53.956Z,4.84
2022-09-12T23:24:22.920Z,4.61
2022-09-12T23:26:49.486Z,4.85
2022-09-12T23:29:16.228Z,4.62
2022-09-12T23:31:44.490Z,4.82
2022-09-12T23:34:11.138Z,4.84
2022-09-12T23:36:37.824Z,4.85
2022-09-12T23:39:04.829Z,4.84
2022-09-12T23:41:31.553Z,4.84
2022-09-12T23:43:58.194Z,4.85
2022-09-12T23:46:24.934Z,4.83
2022-09-12T23:48:53.316Z,4.87
2022-09-12T23:51:21.726Z,4.86
2022-09-12T23:53:48.946Z,4.82
2022-09-12T23:56:16.102Z,4.88
2022-09-12T23:58:42.736Z,4.88
